sensor_id;sensor_type;location;lat;lon;timestamp;pressure;altitude;pressure_sealevel;temperature;humidity
64602;BME280;68371;42.630;23.192;2023-03-25T00:01:28;92086.97;;;7.03;78.78
64602;BME280;68371;42.630;23.192;2023-03-25T00:03:56;92082.19;;;6.84;79.08
64602;BME280;68371;42.630;23.192;2023-03-25T00:06:25;92089.34;;;6.96;79.17
64602;BME280;68371;42.630;23.192;2023-03-25T00:08:52;92085.75;;;7.00;79.15
64602;BME280;68371;42.630;23.192;2023-03-25T00:11:19;92084.50;;;6.86;80.09
64602;BME280;68371;42.630;23.192;2023-03-25T00:13:46;92080.16;;;6.90;79.92
64602;BME280;68371;42.630;23.192;2023-03-25T00:16:13;92080.34;;;6.85;80.86
64602;BME280;68371;42.630;23.192;2023-03-25T00:18:40;92073.34;;;6.76;81.81
64602;BME280;68371;42.630;23.192;2023-03-25T00:21:06;92071.94;;;6.79;81.86
64602;BME280;68371;42.630;23.192;2023-03-25T00:23:35;92071.94;;;6.79;81.99
64602;BME280;68371;42.630;23.192;2023-03-25T00:26:02;92063.16;;;6.84;81.22
64602;BME280;68371;42.630;23.192;2023-03-25T00:28:32;92056.09;;;6.84;80.02
64602;BME280;68371;42.630;23.192;2023-03-25T00:31:02;92058.63;;;6.72;81.43
64602;BME280;68371;42.630;23.192;2023-03-25T00:33:31;92055.84;;;6.56;81.15
64602;BME280;68371;42.630;23.192;2023-03-25T00:35:57;92057.81;;;6.59;81.19
64602;BME280;68371;42.630;23.192;2023-03-25T00:38:24;92057.84;;;6.50;81.11
64602;BME280;68371;42.630;23.192;2023-03-25T00:40:57;92063.97;;;6.54;81.28
64602;BME280;68371;42.630;23.192;2023-03-25T00:43:23;92061.06;;;6.56;81.92
64602;BME280;68371;42.630;23.192;2023-03-25T00:45:55;92064.94;;;6.50;80.42
64602;BME280;68371;42.630;23.192;2023-03-25T00:48:21;92049.44;;;6.45;80.61
64602;BME280;68371;42.630;23.192;2023-03-25T00:50:48;92046.84;;;6.45;81.57
64602;BME280;68371;42.630;23.192;2023-03-25T00:53:14;92052.84;;;6.45;81.96
64602;BME280;68371;42.630;23.192;2023-03-25T00:55:40;92055.19;;;6.38;82.42
64602;BME280;68371;42.630;23.192;2023-03-25T00:58:07;92048.44;;;6.37;82.73
64602;BME280;68371;42.630;23.192;2023-03-25T01:00:35;92030.59;;;6.18;82.64
64602;BME280;68371;42.630;23.192;2023-03-25T01:03:02;92046.38;;;6.21;83.30
64602;BME280;68371;42.630;23.192;2023-03-25T01:05:36;92048.69;;;6.23;82.71
64602;BME280;68371;42.630;23.192;2023-03-25T01:08:05;92044.28;;;6.15;83.68
64602;BME280;68371;42.630;23.192;2023-03-25T01:10:34;92041.56;;;6.03;83.36
64602;BME280;68371;42.630;23.192;2023-03-25T01:13:02;92039.19;;;6.18;84.89
64602;BME280;68371;42.630;23.192;2023-03-25T01:15:28;92034.16;;;6.13;83.78
64602;BME280;68371;42.630;23.192;2023-03-25T01:17:55;92036.81;;;6.05;83.23
64602;BME280;68371;42.630;23.192;2023-03-25T01:20:23;92028.66;;;6.06;83.58
64602;BME280;68371;42.630;23.192;2023-03-25T01:22:50;92026.69;;;6.03;84.18
64602;BME280;68371;42.630;23.192;2023-03-25T01:25:17;92022.09;;;6.00;84.03
64602;BME280;68371;42.630;23.192;2023-03-25T01:27:43;92013.34;;;6.05;84.80
64602;BME280;68371;42.630;23.192;2023-03-25T01:30:10;92008.44;;;6.03;84.01
64602;BME280;68371;42.630;23.192;2023-03-25T01:32:37;92010.91;;;5.99;84.36
64602;BME280;68371;42.630;23.192;2023-03-25T01:35:05;92006.28;;;6.05;84.60
64602;BME280;68371;42.630;23.192;2023-03-25T01:37:33;92003.81;;;6.09;84.20
64602;BME280;68371;42.630;23.192;2023-03-25T01:40:03;92000.41;;;6.08;82.98
64602;BME280;68371;42.630;23.192;2023-03-25T01:42:35;92000.34;;;5.96;84.49
64602;BME280;68371;42.630;23.192;2023-03-25T01:45:12;91995.28;;;5.91;84.72
64602;BME280;68371;42.630;23.192;2023-03-25T01:47:39;91997.25;;;5.64;86.47
64602;BME280;68371;42.630;23.192;2023-03-25T01:50:06;91999.00;;;5.81;86.45
64602;BME280;68371;42.630;23.192;2023-03-25T01:52:40;91996.25;;;5.77;86.61
64602;BME280;68371;42.630;23.192;2023-03-25T01:55:07;91991.78;;;5.87;87.02
64602;BME280;68371;42.630;23.192;2023-03-25T01:57:38;91997.81;;;5.78;87.25
64602;BME280;68371;42.630;23.192;2023-03-25T02:00:08;91994.75;;;5.76;87.74
64602;BME280;68371;42.630;23.192;2023-03-25T02:02:35;91995.00;;;5.83;88.27
64602;BME280;68371;42.630;23.192;2023-03-25T02:05:06;91991.78;;;5.87;87.13
64602;BME280;68371;42.630;23.192;2023-03-25T02:07:36;91996.25;;;5.86;87.20
64602;BME280;68371;42.630;23.192;2023-03-25T02:10:08;91990.56;;;5.84;86.35
64602;BME280;68371;42.630;23.192;2023-03-25T02:12:35;91995.50;;;5.77;86.09
64602;BME280;68371;42.630;23.192;2023-03-25T02:15:03;91991.94;;;5.81;85.41
64602;BME280;68371;42.630;23.192;2023-03-25T02:17:34;91991.47;;;5.88;85.26
64602;BME280;68371;42.630;23.192;2023-03-25T02:20:20;91980.72;;;5.90;85.23
64602;BME280;68371;42.630;23.192;2023-03-25T02:22:58;91985.63;;;5.91;85.93
64602;BME280;68371;42.630;23.192;2023-03-25T02:25:37;91987.63;;;5.86;86.20
64602;BME280;68371;42.630;23.192;2023-03-25T02:28:11;91992.09;;;5.85;85.81
64602;BME280;68371;42.630;23.192;2023-03-25T02:33:30;91987.91;;;5.93;85.66
64602;BME280;68371;42.630;23.192;2023-03-25T02:38:49;91989.63;;;5.89;84.87
64602;BME280;68371;42.630;23.192;2023-03-25T02:41:19;91991.63;;;5.83;85.30
64602;BME280;68371;42.630;23.192;2023-03-25T02:43:49;91989.94;;;5.87;85.11
64602;BME280;68371;42.630;23.192;2023-03-25T02:46:18;91987.81;;;5.80;85.46
64602;BME280;68371;42.630;23.192;2023-03-25T02:48:48;91987.31;;;5.87;85.09
64602;BME280;68371;42.630;23.192;2023-03-25T02:51:17;91978.00;;;5.77;85.40
64602;BME280;68371;42.630;23.192;2023-03-25T02:53:47;91981.72;;;5.76;85.76
64602;BME280;68371;42.630;23.192;2023-03-25T02:56:16;91979.09;;;5.76;85.74
64602;BME280;68371;42.630;23.192;2023-03-25T02:58:46;91975.50;;;5.60;86.43
64602;BME280;68371;42.630;23.192;2023-03-25T03:01:15;91976.28;;;5.60;87.09
64602;BME280;68371;42.630;23.192;2023-03-25T03:03:42;91971.78;;;5.70;87.01
64602;BME280;68371;42.630;23.192;2023-03-25T03:06:12;91912.97;;;5.30;86.66
64602;BME280;68371;42.630;23.192;2023-03-25T03:08:44;91969.41;;;5.47;87.26
64602;BME280;68371;42.630;23.192;2023-03-25T03:11:17;91971.09;;;5.52;87.31
64602;BME280;68371;42.630;23.192;2023-03-25T03:13:50;91969.56;;;5.51;87.20
64602;BME280;68371;42.630;23.192;2023-03-25T03:16:20;91979.69;;;5.52;87.03
64602;BME280;68371;42.630;23.192;2023-03-25T03:18:53;91973.13;;;5.46;87.26
64602;BME280;68371;42.630;23.192;2023-03-25T03:21:27;91977.06;;;5.52;87.35
64602;BME280;68371;42.630;23.192;2023-03-25T03:23:59;91975.22;;;5.53;87.66
64602;BME280;68371;42.630;23.192;2023-03-25T03:26:31;91981.66;;;5.55;87.61
64602;BME280;68371;42.630;23.192;2023-03-25T03:29:00;91979.22;;;5.50;87.93
64602;BME280;68371;42.630;23.192;2023-03-25T03:31:32;91979.38;;;5.54;87.76
64602;BME280;68371;42.630;23.192;2023-03-25T03:34:05;91975.88;;;5.50;87.89
64602;BME280;68371;42.630;23.192;2023-03-25T03:36:36;91979.09;;;5.47;88.03
64602;BME280;68371;42.630;23.192;2023-03-25T03:39:04;91973.13;;;5.46;88.68
64602;BME280;68371;42.630;23.192;2023-03-25T03:41:35;91974.06;;;5.41;88.27
64602;BME280;68371;42.630;23.192;2023-03-25T03:44:05;91965.47;;;5.41;88.71
64602;BME280;68371;42.630;23.192;2023-03-25T03:46:35;91968.22;;;5.45;88.07
64602;BME280;68371;42.630;23.192;2023-03-25T03:49:05;91967.00;;;5.42;88.39
64602;BME280;68371;42.630;23.192;2023-03-25T03:51:34;91976.78;;;5.45;88.76
64602;BME280;68371;42.630;23.192;2023-03-25T03:54:03;91970.00;;;5.53;88.14
64602;BME280;68371;42.630;23.192;2023-03-25T03:56:36;91970.47;;;5.55;88.18
64602;BME280;68371;42.630;23.192;2023-03-25T03:59:06;91979.03;;;5.55;88.09
64602;BME280;68371;42.630;23.192;2023-03-25T04:01:38;91975.88;;;5.50;88.35
64602;BME280;68371;42.630;23.192;2023-03-25T04:04:10;91977.56;;;5.46;88.60
64602;BME280;68371;42.630;23.192;2023-03-25T04:06:40;91978.78;;;5.48;88.89
64602;BME280;68371;42.630;23.192;2023-03-25T04:09:09;91992.09;;;5.47;88.96
64602;BME280;68371;42.630;23.192;2023-03-25T04:11:45;91982.44;;;5.47;88.24
64602;BME280;68371;42.630;23.192;2023-03-25T04:14:12;91980.63;;;5.48;88.27
64602;BME280;68371;42.630;23.192;2023-03-25T04:16:39;91984.28;;;5.47;88.18
64602;BME280;68371;42.630;23.192;2023-03-25T04:19:09;91985.06;;;5.47;88.11
64602;BME280;68371;42.630;23.192;2023-03-25T04:21:38;91979.84;;;5.47;88.37
64602;BME280;68371;42.630;23.192;2023-03-25T04:24:05;91974.22;;;5.36;88.36
64602;BME280;68371;42.630;23.192;2023-03-25T04:26:36;91983.25;;;5.39;88.17
64602;BME280;68371;42.630;23.192;2023-03-25T04:29:05;91982.78;;;5.37;87.73
64602;BME280;68371;42.630;23.192;2023-03-25T04:31:33;91983.88;;;5.36;87.88
64602;BME280;68371;42.630;23.192;2023-03-25T04:34:01;91980.97;;;5.37;87.79
64602;BME280;68371;42.630;23.192;2023-03-25T04:36:28;91981.28;;;5.36;87.74
64602;BME280;68371;42.630;23.192;2023-03-25T04:38:57;91991.38;;;5.37;88.01
64602;BME280;68371;42.630;23.192;2023-03-25T04:41:24;91985.09;;;5.38;88.28
64602;BME280;68371;42.630;23.192;2023-03-25T04:43:52;91989.69;;;5.41;88.15
64602;BME280;68371;42.630;23.192;2023-03-25T04:46:20;91996.59;;;5.37;88.68
64602;BME280;68371;42.630;23.192;2023-03-25T04:48:46;91988.19;;;5.32;88.54
64602;BME280;68371;42.630;23.192;2023-03-25T04:51:13;91993.84;;;5.34;88.83
64602;BME280;68371;42.630;23.192;2023-03-25T04:53:41;91996.91;;;5.36;89.28
64602;BME280;68371;42.630;23.192;2023-03-25T04:56:10;91990.00;;;5.40;89.14
64602;BME280;68371;42.630;23.192;2023-03-25T04:58:40;91997.34;;;5.38;89.22
64602;BME280;68371;42.630;23.192;2023-03-25T05:01:06;91988.44;;;5.48;89.66
64602;BME280;68371;42.630;23.192;2023-03-25T05:03:36;91994.72;;;5.47;89.14
64602;BME280;68371;42.630;23.192;2023-03-25T05:06:05;91992.09;;;5.47;88.88
64602;BME280;68371;42.630;23.192;2023-03-25T05:08:33;91991.38;;;5.37;90.87
64602;BME280;68371;42.630;23.192;2023-03-25T05:10:59;91988.16;;;5.40;90.87
64602;BME280;68371;42.630;23.192;2023-03-25T05:13:26;91988.59;;;5.42;90.87
64602;BME280;68371;42.630;23.192;2023-03-25T05:15:53;91988.44;;;5.48;90.78
64602;BME280;68371;42.630;23.192;2023-03-25T05:18:20;91987.03;;;5.50;90.94
64602;BME280;68371;42.630;23.192;2023-03-25T05:20:48;91986.41;;;5.53;91.60
64602;BME280;68371;42.630;23.192;2023-03-25T05:23:15;91990.34;;;5.59;91.63
64602;BME280;68371;42.630;23.192;2023-03-25T05:25:42;91991.59;;;5.62;91.99
64602;BME280;68371;42.630;23.192;2023-03-25T05:28:11;91983.59;;;5.67;92.40
64602;BME280;68371;42.630;23.192;2023-03-25T05:30:38;91979.09;;;5.76;92.13
64602;BME280;68371;42.630;23.192;2023-03-25T05:33:06;91981.66;;;5.85;92.15
64602;BME280;68371;42.630;23.192;2023-03-25T05:35:34;91987.00;;;5.89;92.35
64602;BME280;68371;42.630;23.192;2023-03-25T05:38:02;91985.13;;;5.98;92.66
64602;BME280;68371;42.630;23.192;2023-03-25T05:40:28;91979.00;;;6.03;92.68
64602;BME280;68371;42.630;23.192;2023-03-25T05:42:56;91985.03;;;6.15;93.49
64602;BME280;68371;42.630;23.192;2023-03-25T05:45:22;91985.63;;;6.21;93.09
64602;BME280;68371;42.630;23.192;2023-03-25T05:47:49;91998.59;;;6.30;93.05
64602;BME280;68371;42.630;23.192;2023-03-25T05:50:16;91993.97;;;6.35;92.94
64602;BME280;68371;42.630;23.192;2023-03-25T05:52:42;91988.97;;;6.42;92.99
64602;BME280;68371;42.630;23.192;2023-03-25T05:55:13;91999.69;;;6.50;93.00
64602;BME280;68371;42.630;23.192;2023-03-25T05:57:42;91999.31;;;6.60;92.82
64602;BME280;68371;42.630;23.192;2023-03-25T06:00:09;92001.97;;;6.72;92.57
64602;BME280;68371;42.630;23.192;2023-03-25T06:02:37;91996.66;;;6.81;92.55
64602;BME280;68371;42.630;23.192;2023-03-25T06:05:07;91999.66;;;6.92;92.71
64602;BME280;68371;42.630;23.192;2023-03-25T06:07:34;91984.22;;;6.99;92.24
64602;BME280;68371;42.630;23.192;2023-03-25T06:10:01;91996.22;;;7.12;91.95
64602;BME280;68371;42.630;23.192;2023-03-25T06:12:30;91993.00;;;7.28;91.95
64602;BME280;68371;42.630;23.192;2023-03-25T06:14:58;91985.06;;;7.36;92.45
64602;BME280;68371;42.630;23.192;2023-03-25T06:17:24;91990.88;;;7.54;91.49
64602;BME280;68371;42.630;23.192;2023-03-25T06:19:51;91990.09;;;7.66;91.31
64602;BME280;68371;42.630;23.192;2023-03-25T06:22:17;91994.81;;;7.85;90.98
64602;BME280;68371;42.630;23.192;2023-03-25T06:24:46;91985.09;;;7.98;90.27
64602;BME280;68371;42.630;23.192;2023-03-25T06:27:14;91998.91;;;8.11;90.11
64602;BME280;68371;42.630;23.192;2023-03-25T06:29:44;91997.94;;;8.28;89.05
64602;BME280;68371;42.630;23.192;2023-03-25T06:32:12;91995.44;;;8.44;88.41
64602;BME280;68371;42.630;23.192;2023-03-25T06:34:40;91995.72;;;8.54;88.60
64602;BME280;68371;42.630;23.192;2023-03-25T06:37:09;91992.50;;;8.73;87.86
64602;BME280;68371;42.630;23.192;2023-03-25T06:39:35;91998.78;;;8.85;87.09
64602;BME280;68371;42.630;23.192;2023-03-25T06:42:02;92002.97;;;9.01;85.85
64602;BME280;68371;42.630;23.192;2023-03-25T06:44:29;91996.25;;;9.16;85.86
64602;BME280;68371;42.630;23.192;2023-03-25T06:46:57;91998.03;;;9.28;84.14
64602;BME280;68371;42.630;23.192;2023-03-25T06:49:24;91997.66;;;9.42;84.01
64602;BME280;68371;42.630;23.192;2023-03-25T06:51:51;92001.88;;;9.62;82.72
64602;BME280;68371;42.630;23.192;2023-03-25T06:54:17;91999.59;;;9.77;82.25
64602;BME280;68371;42.630;23.192;2023-03-25T06:56:47;91996.81;;;9.86;80.73
64602;BME280;68371;42.630;23.192;2023-03-25T06:59:14;91997.81;;;9.97;81.42
64602;BME280;68371;42.630;23.192;2023-03-25T07:01:41;92010.72;;;10.21;80.29
64602;BME280;68371;42.630;23.192;2023-03-25T07:04:09;92009.38;;;10.28;79.00
64602;BME280;68371;42.630;23.192;2023-03-25T07:06:35;92002.31;;;10.48;79.62
64602;BME280;68371;42.630;23.192;2023-03-25T07:09:02;91995.81;;;10.77;77.61
64602;BME280;68371;42.630;23.192;2023-03-25T07:11:28;91992.53;;;10.83;76.92
64602;BME280;68371;42.630;23.192;2023-03-25T07:13:55;91999.94;;;10.97;77.65
64602;BME280;68371;42.630;23.192;2023-03-25T07:16:22;92000.16;;;11.08;77.07
64602;BME280;68371;42.630;23.192;2023-03-25T07:18:49;91996.31;;;11.25;76.80
64602;BME280;68371;42.630;23.192;2023-03-25T07:21:17;91989.38;;;11.36;75.97
64602;BME280;68371;42.630;23.192;2023-03-25T07:23:45;91995.66;;;11.51;75.23
64602;BME280;68371;42.630;23.192;2023-03-25T07:26:12;91993.38;;;11.50;75.08
64602;BME280;68371;42.630;23.192;2023-03-25T07:28:38;91985.72;;;11.64;76.08
64602;BME280;68371;42.630;23.192;2023-03-25T07:31:06;91995.69;;;11.78;75.69
64602;BME280;68371;42.630;23.192;2023-03-25T07:33:33;91993.56;;;12.07;73.50
64602;BME280;68371;42.630;23.192;2023-03-25T07:35:59;92000.53;;;12.22;70.63
64602;BME280;68371;42.630;23.192;2023-03-25T07:38:27;92003.13;;;12.18;71.99
64602;BME280;68371;42.630;23.192;2023-03-25T07:40:54;91992.91;;;12.40;71.06
64602;BME280;68371;42.630;23.192;2023-03-25T07:43:20;91993.50;;;12.56;68.44
64602;BME280;68371;42.630;23.192;2023-03-25T07:45:47;91988.41;;;12.71;67.21
64602;BME280;68371;42.630;23.192;2023-03-25T07:48:13;91985.50;;;12.79;67.67
64602;BME280;68371;42.630;23.192;2023-03-25T07:50:42;91938.44;;;12.78;65.26
64602;BME280;68371;42.630;23.192;2023-03-25T07:53:09;91986.56;;;13.05;66.63
64602;BME280;68371;42.630;23.192;2023-03-25T07:55:37;91989.03;;;13.25;65.90
64602;BME280;68371;42.630;23.192;2023-03-25T07:58:04;91977.84;;;13.35;63.54
64602;BME280;68371;42.630;23.192;2023-03-25T08:00:30;91976.19;;;13.57;62.24
64602;BME280;68371;42.630;23.192;2023-03-25T08:02:57;91974.34;;;13.61;62.24
64602;BME280;68371;42.630;23.192;2023-03-25T08:05:23;91975.00;;;13.95;53.23
64602;BME280;68371;42.630;23.192;2023-03-25T08:07:50;91970.06;;;13.94;56.11
64602;BME280;68371;42.630;23.192;2023-03-25T08:10:18;91967.22;;;14.17;55.42
64602;BME280;68371;42.630;23.192;2023-03-25T08:12:47;91964.97;;;14.15;54.98
64602;BME280;68371;42.630;23.192;2023-03-25T08:15:17;91920.00;;;14.08;52.45
64602;BME280;68371;42.630;23.192;2023-03-25T08:17:44;91952.28;;;14.42;54.24
64602;BME280;68371;42.630;23.192;2023-03-25T08:20:12;91956.22;;;14.67;51.30
64602;BME280;68371;42.630;23.192;2023-03-25T08:22:38;91963.41;;;14.66;51.70
64602;BME280;68371;42.630;23.192;2023-03-25T08:25:06;91971.38;;;14.77;50.56
64602;BME280;68371;42.630;23.192;2023-03-25T08:27:32;91968.78;;;14.91;51.45
64602;BME280;68371;42.630;23.192;2023-03-25T08:30:00;91962.03;;;15.01;49.13
64602;BME280;68371;42.630;23.192;2023-03-25T08:32:29;91959.00;;;15.06;47.96
64602;BME280;68371;42.630;23.192;2023-03-25T08:34:55;91955.22;;;15.03;47.46
64602;BME280;68371;42.630;23.192;2023-03-25T08:37:22;91949.16;;;14.99;46.08
64602;BME280;68371;42.630;23.192;2023-03-25T08:39:50;91951.81;;;15.03;46.71
64602;BME280;68371;42.630;23.192;2023-03-25T08:42:19;91946.16;;;15.08;48.64
64602;BME280;68371;42.630;23.192;2023-03-25T08:44:45;91940.16;;;15.26;47.67
64602;BME280;68371;42.630;23.192;2023-03-25T08:47:13;91936.03;;;15.42;45.59
64602;BME280;68371;42.630;23.192;2023-03-25T08:49:40;91938.28;;;15.30;47.37
64602;BME280;68371;42.630;23.192;2023-03-25T08:52:06;91940.19;;;15.36;47.30
64602;BME280;68371;42.630;23.192;2023-03-25T08:54:34;91939.81;;;15.34;47.23
64602;BME280;68371;42.630;23.192;2023-03-25T08:57:01;91937.91;;;15.24;46.61
64602;BME280;68371;42.630;23.192;2023-03-25T08:59:27;91941.69;;;15.30;46.63
64602;BME280;68371;42.630;23.192;2023-03-25T09:01:54;91936.06;;;15.53;48.37
64602;BME280;68371;42.630;23.192;2023-03-25T09:04:21;91928.13;;;15.64;48.78
64602;BME280;68371;42.630;23.192;2023-03-25T09:06:50;91926.63;;;15.81;46.96
64602;BME280;68371;42.630;23.192;2023-03-25T09:09:16;91924.00;;;15.85;47.19
64602;BME280;68371;42.630;23.192;2023-03-25T09:11:45;91924.00;;;15.92;46.34
64602;BME280;68371;42.630;23.192;2023-03-25T09:14:11;91914.13;;;16.03;43.36
64602;BME280;68371;42.630;23.192;2023-03-25T09:16:38;91913.75;;;16.15;45.03
64602;BME280;68371;42.630;23.192;2023-03-25T09:19:05;91908.06;;;16.13;44.41
64602;BME280;68371;42.630;23.192;2023-03-25T09:21:33;91902.78;;;16.24;43.92
64602;BME280;68371;42.630;23.192;2023-03-25T09:24:00;91911.88;;;16.12;43.56
64602;BME280;68371;42.630;23.192;2023-03-25T09:26:26;91903.91;;;16.09;47.10
64602;BME280;68371;42.630;23.192;2023-03-25T09:28:53;91902.78;;;16.24;44.82
64602;BME280;68371;42.630;23.192;2023-03-25T09:31:21;91899.75;;;16.22;46.16
64602;BME280;68371;42.630;23.192;2023-03-25T09:33:47;91899.34;;;16.34;43.08
64602;BME280;68371;42.630;23.192;2023-03-25T09:36:16;91896.28;;;16.36;44.95
64602;BME280;68371;42.630;23.192;2023-03-25T09:38:43;91898.88;;;16.54;44.52
64602;BME280;68371;42.630;23.192;2023-03-25T09:41:17;91906.03;;;16.71;46.94
64602;BME280;68371;42.630;23.192;2023-03-25T09:43:50;91899.94;;;16.78;44.54
64602;BME280;68371;42.630;23.192;2023-03-25T09:46:21;91858.72;;;16.59;44.41
64602;BME280;68371;42.630;23.192;2023-03-25T09:48:48;91896.94;;;16.83;42.57
64602;BME280;68371;42.630;23.192;2023-03-25T09:51:18;91887.44;;;16.89;43.39
64602;BME280;68371;42.630;23.192;2023-03-25T09:53:49;91903.28;;;17.00;43.44
64602;BME280;68371;42.630;23.192;2023-03-25T09:56:18;91895.72;;;16.95;42.26
64602;BME280;68371;42.630;23.192;2023-03-25T09:58:48;91865.84;;;16.84;41.69
64602;BME280;68371;42.630;23.192;2023-03-25T10:01:22;91896.81;;;17.08;42.10
64602;BME280;68371;42.630;23.192;2023-03-25T10:03:54;91886.09;;;17.22;43.88
64602;BME280;68371;42.630;23.192;2023-03-25T10:06:22;91883.72;;;17.39;47.06
64602;BME280;68371;42.630;23.192;2023-03-25T10:08:58;91878.31;;;17.50;47.54
64602;BME280;68371;42.630;23.192;2023-03-25T10:11:28;91867.69;;;17.53;43.49
64602;BME280;68371;42.630;23.192;2023-03-25T10:13:59;91865.81;;;17.54;43.07
64602;BME280;68371;42.630;23.192;2023-03-25T10:16:31;91858.44;;;17.72;41.32
64602;BME280;68371;42.630;23.192;2023-03-25T10:19:07;91859.88;;;17.84;40.99
64602;BME280;68371;42.630;23.192;2023-03-25T10:21:40;91852.19;;;17.97;42.79
64602;BME280;68371;42.630;23.192;2023-03-25T10:24:16;91848.09;;;17.89;40.53
64602;BME280;68371;42.630;23.192;2023-03-25T10:26:44;91852.53;;;18.02;41.18
64602;BME280;68371;42.630;23.192;2023-03-25T10:29:12;91847.22;;;17.99;40.55
64602;BME280;68371;42.630;23.192;2023-03-25T10:31:42;91842.28;;;18.01;40.42
64602;BME280;68371;42.630;23.192;2023-03-25T10:34:14;91846.13;;;18.31;42.56
64602;BME280;68371;42.630;23.192;2023-03-25T10:36:43;91845.38;;;18.30;38.81
64602;BME280;68371;42.630;23.192;2023-03-25T10:39:12;91840.91;;;18.24;40.80
64602;BME280;68371;42.630;23.192;2023-03-25T10:41:41;91841.53;;;18.35;38.47
64602;BME280;68371;42.630;23.192;2023-03-25T10:44:10;91836.50;;;18.44;41.61
64602;BME280;68371;42.630;23.192;2023-03-25T10:46:38;91839.81;;;18.55;40.55
64602;BME280;68371;42.630;23.192;2023-03-25T10:49:12;91842.38;;;18.62;38.24
64602;BME280;68371;42.630;23.192;2023-03-25T10:51:40;91839.31;;;18.64;38.34
64602;BME280;68371;42.630;23.192;2023-03-25T10:54:07;91824.94;;;18.58;39.64
64602;BME280;68371;42.630;23.192;2023-03-25T10:56:36;91821.41;;;18.68;40.36
64602;BME280;68371;42.630;23.192;2023-03-25T10:59:09;91820.25;;;18.69;38.49
64602;BME280;68371;42.630;23.192;2023-03-25T11:01:38;91826.72;;;18.68;38.64
64602;BME280;68371;42.630;23.192;2023-03-25T11:04:06;91819.84;;;18.71;38.47
64602;BME280;68371;42.630;23.192;2023-03-25T11:06:35;91810.38;;;19.00;38.23
64602;BME280;68371;42.630;23.192;2023-03-25T11:11:47;91811.13;;;19.52;40.32
64602;BME280;68371;42.630;23.192;2023-03-25T11:14:15;91808.16;;;19.73;36.66
64602;BME280;68371;42.630;23.192;2023-03-25T11:16:47;91804.75;;;19.73;36.56
64602;BME280;68371;42.630;23.192;2023-03-25T11:19:15;91796.22;;;19.54;36.99
64602;BME280;68371;42.630;23.192;2023-03-25T11:21:44;91799.31;;;19.53;35.88
64602;BME280;68371;42.630;23.192;2023-03-25T11:24:12;91802.34;;;19.55;35.06
64602;BME280;68371;42.630;23.192;2023-03-25T11:26:39;91803.38;;;19.85;35.18
64602;BME280;68371;42.630;23.192;2023-03-25T11:29:08;91793.97;;;20.00;37.41
64602;BME280;68371;42.630;23.192;2023-03-25T11:31:38;91789.91;;;20.15;38.09
64602;BME280;68371;42.630;23.192;2023-03-25T11:34:20;91781.63;;;20.10;36.98
64602;BME280;68371;42.630;23.192;2023-03-25T11:36:50;91779.56;;;19.97;37.13
64602;BME280;68371;42.630;23.192;2023-03-25T11:39:29;91778.66;;;20.04;38.42
64602;BME280;68371;42.630;23.192;2023-03-25T11:41:57;91774.28;;;19.94;36.71
64602;BME280;68371;42.630;23.192;2023-03-25T11:44:26;91777.06;;;19.87;36.14
64602;BME280;68371;42.630;23.192;2023-03-25T11:46:57;91773.53;;;19.70;34.55
64602;BME280;68371;42.630;23.192;2023-03-25T11:49:27;91776.91;;;19.50;33.55
64602;BME280;68371;42.630;23.192;2023-03-25T11:51:59;91773.63;;;19.42;33.25
64602;BME280;68371;42.630;23.192;2023-03-25T11:54:27;91773.41;;;19.30;34.43
64602;BME280;68371;42.630;23.192;2023-03-25T11:56:55;91771.22;;;19.25;35.49
64602;BME280;68371;42.630;23.192;2023-03-25T11:59:23;91774.19;;;19.30;35.59
64602;BME280;68371;42.630;23.192;2023-03-25T12:01:52;91760.56;;;19.25;37.08
64602;BME280;68371;42.630;23.192;2023-03-25T12:04:27;91723.69;;;18.99;36.44
64602;BME280;68371;42.630;23.192;2023-03-25T12:06:58;91760.09;;;19.30;36.07
64602;BME280;68371;42.630;23.192;2023-03-25T12:09:26;91760.53;;;19.01;36.38
64602;BME280;68371;42.630;23.192;2023-03-25T12:11:56;91755.38;;;18.90;37.06
64602;BME280;68371;42.630;23.192;2023-03-25T12:14:29;91751.28;;;18.86;37.78
64602;BME280;68371;42.630;23.192;2023-03-25T12:17:02;91747.75;;;18.92;37.53
64602;BME280;68371;42.630;23.192;2023-03-25T12:19:33;91747.75;;;18.92;37.00
64602;BME280;68371;42.630;23.192;2023-03-25T12:22:10;91755.47;;;19.10;36.53
64602;BME280;68371;42.630;23.192;2023-03-25T12:24:42;91744.78;;;19.37;37.32
64602;BME280;68371;42.630;23.192;2023-03-25T12:27:15;91755.66;;;19.47;38.29
64602;BME280;68371;42.630;23.192;2023-03-25T12:29:45;91759.72;;;19.55;37.18
64602;BME280;68371;42.630;23.192;2023-03-25T12:32:20;91757.31;;;19.60;38.10
64602;BME280;68371;42.630;23.192;2023-03-25T12:34:58;91747.63;;;19.70;37.05
64602;BME280;68371;42.630;23.192;2023-03-25T12:37:30;91737.63;;;19.78;37.55
64602;BME280;68371;42.630;23.192;2023-03-25T12:40:14;91740.94;;;19.86;35.55
64602;BME280;68371;42.630;23.192;2023-03-25T12:42:44;91737.38;;;19.92;35.05
64602;BME280;68371;42.630;23.192;2023-03-25T12:45:17;91734.66;;;19.96;36.08
64602;BME280;68371;42.630;23.192;2023-03-25T12:47:48;91738.81;;;19.77;34.74
64602;BME280;68371;42.630;23.192;2023-03-25T12:50:39;91739.28;;;19.92;35.29
64602;BME280;68371;42.630;23.192;2023-03-25T12:53:14;91730.72;;;19.80;34.51
64602;BME280;68371;42.630;23.192;2023-03-25T12:55:49;91724.16;;;19.65;36.09
64602;BME280;68371;42.630;23.192;2023-03-25T13:01:01;91729.81;;;19.44;37.21
64602;BME280;68371;42.630;23.192;2023-03-25T13:06:19;91731.34;;;19.21;38.66
64602;BME280;68371;42.630;23.192;2023-03-25T13:08:50;91732.34;;;19.04;39.01
64602;BME280;68371;42.630;23.192;2023-03-25T13:11:20;91733.19;;;19.00;38.93
64602;BME280;68371;42.630;23.192;2023-03-25T13:13:48;91736.94;;;19.03;39.98
64602;BME280;68371;42.630;23.192;2023-03-25T13:16:17;91747.09;;;18.85;39.17
64602;BME280;68371;42.630;23.192;2023-03-25T13:18:45;91748.66;;;18.82;40.83